• Join FlightAware (Why Join?)
  • Login
  • US Flag 
02:34PM EST


 

Airport Tracker/Info


-or-


 

Live Flight TrackerFlight Track Log ✈ UAL5942 ✈ 06-May-2013 ✈ KCHS - KORD

Flight Track Log - Related Links

Times and Time Zones

All times are in EDT time to prevent confusion due to time zone crossing. See the UAL5942 flight status page for this flight to view local times or setup timezone preferences in your user account.

Time Position Orientation Groundspeed Altitude Reporting Facility
EDT Latitude Longitude Course Direction KTS MPH feet Rate Location/Type
11:49AM 32.8483 -80.0417 30° Northeast 191 220 2,100  Level Jacksonville Center
11:50AM 32.8894 -80.0131 30° Northeast 248 285 3,700 2,040 Climbing Jacksonville Center
11:51AM 32.9611 -80.0478 338° Northwest 244 281 6,200 2,580 Climbing Jacksonville Center
11:52AM 33.0331 -80.0878 335° Northwest 256 295 8,900 2,100 Climbing Jacksonville Center
11:53AM 33.1156 -80.1322 336° Northwest 311 358 10,400 1,140 Climbing Jacksonville Center
11:54AM 33.1978 -80.1794 334° Northwest 336 387 11,200 1,380 Climbing Jacksonville Center
11:56AM 33.3488 -80.2732 309° West  Level FlightAware Approximate
11:57AM 33.4489 -80.4131 309° West 381 438 16,000  Level Jacksonville Center
11:58AM 33.5361 -80.4906 323° Northwest 381 438 17,600 1,440 Climbing Jacksonville Center
11:59AM 33.6433 -80.5425 338° Northwest 402 463 19,000 1,200 Climbing Jacksonville Center
12:00PM 33.7569 -80.5869 342° North 408 470 20,000 1,020 Climbing Jacksonville Center
12:01PM 33.8767 -80.6339 342° North 429 494 21,100 1,200 Climbing Jacksonville Center
12:02PM 33.9944 -80.6858 340° North 441 507 22,500 1,380 Climbing Jacksonville Center
12:04PM 34.2058 -80.8411 329° Northwest 446 513 25,300 1,380 Climbing Jacksonville Center
12:05PM 34.3197 -80.9264 328° Northwest 446 513 26,700 720 Climbing Jacksonville Center
12:07PM 34.4633 -81.0475 328° Northwest  Level FlightAware Approximate
12:07PM 34.5414 -81.0883 328° Northwest 444 511 27,700  Level Atlanta Center
12:08PM 34.6517 -81.1653 330° Northwest 454 522 29,200 1,500 Climbing Atlanta Center
12:09PM 34.7686 -81.2547 328° Northwest 461 531 30,700 780 Climbing Atlanta Center
12:11PM 34.9005 -81.3672 321° Northwest  Level FlightAware Approximate
12:12PM 35.0953 -81.5028 327° Northwest 470 541 32,400  Level Atlanta Center
12:14PM 35.3283 -81.6764 329° Northwest 487 560 33,000 780 Climbing Atlanta Center
12:16PM 35.4647 -81.7818 328° Northwest  Level FlightAware Approximate
12:16PM 35.5378 -81.8364 328° Northwest 476 548 35,600  Level Atlanta Center
12:17PM 35.6456 -81.9150 329° Northwest 459 528 36,000 120 Climbing Atlanta Center
12:18PM 35.5724 -81.8676 327° Northwest  Level FlightAware Approximate
12:19PM 35.8536 -82.0697 329° Northwest 482 555 36,000  Level Indianapolis Center
12:20PM 35.9694 -82.1600 328° Northwest 490 564 36,000  Level Indianapolis Center
12:21PM 36.0872 -82.2497 328° Northwest 494 568 36,000  Level Indianapolis Center
12:22PM 36.2008 -82.3392 328° Northwest 487 560 36,000  Level Indianapolis Center
12:23PM 36.3400 -82.4483 328° Northwest 490 564 36,000  Level Atlanta Center
12:24PM 36.4517 -82.5339 328° Northwest 482 555 36,000  Level Atlanta Center
12:25PM 36.5675 -82.6275 327° Northwest 482 555 36,000  Level Atlanta Center
12:27PM 36.7069 -82.7425 327° Northwest  Level FlightAware Approximate
12:27PM 36.7992 -82.8058 327° Northwest 500 575 36,000  Level Indianapolis Center
12:28PM 36.9211 -82.9028 328° Northwest 495 570 36,000  Level Indianapolis Center
12:30PM 37.0606 -83.0138 328° Northwest  Level FlightAware Approximate
12:32PM 37.3767 -83.2664 327° Northwest 482 555 36,000  Level Indianapolis Center
12:33PM 37.4883 -83.3572 327° Northwest 478 550 36,000  Level Indianapolis Center
12:35PM 37.6168 -83.4530 330° Northwest  Level FlightAware Approximate
12:35PM 37.7419 -83.5442 330° Northwest 486 559 36,000  Level Indianapolis Center
12:36PM 37.8597 -83.6311 330° Northwest 490 564 36,000  Level Indianapolis Center
12:37PM 37.7482 -83.5681 327° Northwest  Level FlightAware Approximate
12:37PM 37.9753 -83.7172 330° Northwest 484 557 36,000  Level Indianapolis Center
12:38PM 37.8463 -83.6481 327° Northwest  Level FlightAware Approximate
12:38PM 38.0897 -83.8036 329° Northwest 477 549 36,000  Level Indianapolis Center
12:39PM 38.2061 -83.8903 330° Northwest 481 554 36,000  Level Indianapolis Center
12:40PM 38.3228 -83.9789 329° Northwest 485 558 36,000  Level Indianapolis Center
12:41PM 38.4400 -84.0669 330° Northwest 487 560 36,000  Level Indianapolis Center
12:42PM 38.5564 -84.1544 330° Northwest 485 558 36,000  Level Indianapolis Center
12:44PM 38.6593 -84.2354 328° Northwest  Level FlightAware Approximate
12:46PM 38.9294 -84.4422 329° Northwest 482 555 36,000  Level Indianapolis Center
12:48PM 39.1583 -84.6183 329° Northwest 471 542 34,300 -900 Descending Indianapolis Center
12:49PM 39.2683 -84.7044 329° Northwest 460 529 33,300 -1,560 Descending Indianapolis Center
12:51PM 39.3614 -84.7758 329° Northwest  Level FlightAware Approximate
12:52PM 39.6178 -84.9781 329° Northwest 467 537 28,100  Level Indianapolis Center
12:53PM 39.7294 -85.0669 329° Northwest 471 542 28,000 -120 Descending Indianapolis Center
12:54PM 39.8419 -85.1558 329° Northwest 476 548 27,900 -660 Descending Indianapolis Center
12:56PM 40.0146 -85.2892 329° Northwest  Level FlightAware Approximate
12:56PM 40.0658 -85.3333 329° Northwest 476 548 26,000  Level Chicago Center
12:57PM 40.1767 -85.4231 328° Northwest 472 543 26,000 -60 Level Indianapolis Center
12:58PM 40.3094 -85.5303 328° Northwest 470 541 25,900 -540 Descending Indianapolis Center
12:59PM 40.4200 -85.6189 329° Northwest 470 541 24,900 -1,080 Descending Indianapolis Center
01:00PM 40.5350 -85.6972 333° Northwest 470 541 23,700 -1,620 Descending Chicago Center
01:02PM 40.7084 -85.7666 343° North  Level FlightAware Approximate
01:02PM 40.7467 -85.8414 343° North 439 505 20,000  Level Indianapolis Center
01:03PM 40.8108 -85.9811 301° West 448 516 20,000  Level Indianapolis Center
01:04PM 40.8814 -86.1325 302° West 444 511 20,000  Level Chicago Center
01:05PM 40.9456 -86.2711 302° West 441 507 20,000  Level Chicago Center
01:07PM 41.0758 -86.5547 301° West 435 501 20,000 -540 Level Indianapolis Center
01:08PM 41.1461 -86.7094 301° West 431 496 18,400 -1,440 Descending Chicago Center
01:09PM 41.2069 -86.8358 303° West 416 479 17,000 -1,800 Descending Chicago Center
01:12PM 41.2812 -87.0062 300° West  Level FlightAware Approximate
01:12PM 41.3928 -87.2275 300° West 386 444 11,000  Level Chicago Center
01:13PM 41.4722 -87.3231 318° Northwest 388 447 11,000 -360 Level Chicago Center
01:15PM 41.5726 -87.4305 320° Northwest  Level FlightAware Approximate
01:15PM 41.6261 -87.4947 320° Northwest 349 402 10,000  Level Chicago Center
01:17PM 41.7019 -87.5800 320° Northwest 305 351 9,000 -540 Descending Chicago Center
01:18PM 41.7500 -87.6333 320° Northwest 245 282 9,000 -420 Level Chicago TRACON
01:21PM 41.9119 -87.8286 323° Northwest  Level FlightAware Approximate
01:22PM 41.8333 -87.9167 323° Northwest 248 285 7,000  Level Chicago TRACON
01:23PM 41.7833 -87.9833 225° Southwest 232 267 5,900 -960 Descending Chicago TRACON
01:24PM 41.7500 -88.0333 228° Southwest 202 232 5,200 -540 Descending Chicago TRACON
01:25PM 41.7692 -88.0969 292° West 208 239 4,700 -480 Descending Chicago Center
01:26PM 41.8161 -88.0631 28° Northeast 180 207 4,200 -720 Descending Chicago Center
01:27PM 41.8514 -88.0203 42° Northeast 175 201 3,300 -960 Descending Chicago Center
01:28PM 41.8833 -87.9833 41° Northeast 159 183 2,500 -960 Descending Chicago TRACON
01:31PM 41.9667 -87.9000 23° Northeast  Level FlightAware Approximate
01:38PM 41.9817 -87.9067 23° Northeast  Level Estimated